createdAt,value
2018-01-16T00:00:09.112Z,0
2018-01-16T00:00:49.647Z,0
2018-01-16T00:01:30.210Z,0
2018-01-16T00:02:11.608Z,0
2018-01-16T00:02:52.121Z,0
2018-01-16T00:03:32.692Z,0
2018-01-16T00:04:13.179Z,0
2018-01-16T00:04:53.727Z,0
2018-01-16T00:05:34.281Z,0
2018-01-16T00:06:14.898Z,0
2018-01-16T00:06:55.417Z,0
2018-01-16T00:07:36.033Z,0
2018-01-16T00:08:16.538Z,0
2018-01-16T00:08:57.098Z,0
2018-01-16T00:09:37.652Z,0
2018-01-16T00:10:18.163Z,0
2018-01-16T00:10:58.753Z,0
2018-01-16T00:11:39.315Z,0
2018-01-16T00:12:19.878Z,0
2018-01-16T00:13:00.381Z,0
2018-01-16T00:13:40.958Z,0
2018-01-16T00:14:21.501Z,0
2018-01-16T00:15:02.044Z,0
2018-01-16T00:15:42.566Z,0
2018-01-16T00:16:23.114Z,0
2018-01-16T00:17:03.634Z,0
2018-01-16T00:17:44.243Z,0
2018-01-16T00:18:24.715Z,0
2018-01-16T00:19:05.248Z,0
2018-01-16T00:19:45.708Z,0
2018-01-16T00:20:26.276Z,0
2018-01-16T00:21:06.818Z,0
2018-01-16T00:21:47.339Z,0
2018-01-16T00:22:27.906Z,0
2018-01-16T00:23:08.456Z,0
2018-01-16T00:23:48.971Z,0
2018-01-16T00:24:29.525Z,0
2018-01-16T00:25:10.107Z,0
2018-01-16T00:25:50.631Z,0
2018-01-16T00:26:31.191Z,0
2018-01-16T00:27:11.727Z,0
2018-01-16T00:27:52.230Z,0
2018-01-16T00:28:32.777Z,0
2018-01-16T00:29:13.349Z,0
2018-01-16T00:29:53.871Z,0
2018-01-16T00:30:34.379Z,0
2018-01-16T00:31:14.945Z,0
2018-01-16T00:31:55.477Z,0
2018-01-16T00:32:36.021Z,0
2018-01-16T00:33:16.519Z,0
2018-01-16T00:33:57.189Z,0
2018-01-16T00:34:37.659Z,0
2018-01-16T00:35:18.261Z,0
2018-01-16T00:35:58.785Z,0
2018-01-16T00:36:39.362Z,0
2018-01-16T00:37:19.881Z,0
2018-01-16T00:38:00.503Z,0
2018-01-16T00:38:41.033Z,0
2018-01-16T00:39:21.572Z,0
2018-01-16T00:40:02.117Z,0
2018-01-16T00:40:42.683Z,0
2018-01-16T00:41:23.279Z,0
2018-01-16T00:42:03.789Z,0
2018-01-16T00:42:44.347Z,0
2018-01-16T00:43:24.919Z,0
2018-01-16T00:44:05.408Z,0
2018-01-16T00:44:46.021Z,0
2018-01-16T00:45:26.488Z,0
2018-01-16T00:46:07.008Z,0
2018-01-16T00:46:47.641Z,0
2018-01-16T00:47:28.164Z,0
2018-01-16T00:48:08.729Z,0
2018-01-16T00:48:49.211Z,0
2018-01-16T00:49:29.714Z,0
2018-01-16T00:50:10.283Z,0
2018-01-16T00:50:50.836Z,0
2018-01-16T00:51:31.407Z,0
2018-01-16T00:52:11.896Z,0
2018-01-16T00:52:52.374Z,0
2018-01-16T00:53:32.945Z,0
2018-01-16T00:54:13.452Z,0
2018-01-16T00:54:53.972Z,0
2018-01-16T00:55:34.494Z,0
2018-01-16T00:56:15.034Z,0
2018-01-16T00:56:55.580Z,0
2018-01-16T00:57:36.141Z,0
2018-01-16T00:58:16.678Z,0
2018-01-16T00:58:57.283Z,0
2018-01-16T00:59:37.858Z,0
2018-01-16T01:00:18.341Z,0
2018-01-16T01:00:58.959Z,0
2018-01-16T01:01:39.514Z,0
2018-01-16T01:02:19.995Z,0
2018-01-16T01:03:00.536Z,0
2018-01-16T01:03:41.058Z,0
2018-01-16T01:04:21.550Z,0
2018-01-16T01:05:02.086Z,0
2018-01-16T01:05:42.656Z,0
2018-01-16T01:06:23.194Z,0
2018-01-16T01:07:03.741Z,0
2018-01-16T01:07:44.273Z,0
2018-01-16T01:08:24.819Z,0
2018-01-16T01:09:05.304Z,0
2018-01-16T01:09:45.861Z,0
2018-01-16T01:10:26.378Z,0
2018-01-16T01:11:06.917Z,0
2018-01-16T01:11:47.407Z,0
2018-01-16T01:12:27.922Z,0
2018-01-16T01:13:08.473Z,0
2018-01-16T01:13:48.965Z,0
2018-01-16T01:14:29.492Z,0
2018-01-16T01:15:10.122Z,0
2018-01-16T01:15:50.606Z,0
2018-01-16T01:16:31.131Z,0
2018-01-16T01:17:11.684Z,0
2018-01-16T01:17:52.148Z,0
2018-01-16T01:18:32.724Z,0
2018-01-16T01:19:13.235Z,0
2018-01-16T01:19:53.837Z,0
2018-01-16T01:20:34.349Z,0
2018-01-16T01:21:14.885Z,0
2018-01-16T01:21:55.475Z,0
2018-01-16T01:22:36.032Z,0
2018-01-16T01:23:16.547Z,0
2018-01-16T01:23:57.140Z,0
2018-01-16T01:24:37.666Z,0
2018-01-16T01:25:18.208Z,0
2018-01-16T01:25:58.746Z,0
2018-01-16T01:26:39.253Z,0
2018-01-16T01:27:19.834Z,0
2018-01-16T01:28:00.299Z,0
2018-01-16T01:28:40.866Z,0
2018-01-16T01:29:21.378Z,0
2018-01-16T01:30:01.904Z,0
2018-01-16T01:30:42.426Z,0
2018-01-16T01:31:22.962Z,0
2018-01-16T01:32:03.555Z,0
2018-01-16T01:32:44.145Z,0
2018-01-16T01:33:24.658Z,0
2018-01-16T01:34:05.231Z,0
2018-01-16T01:34:45.757Z,0
2018-01-16T01:35:26.310Z,0
2018-01-16T01:36:06.856Z,0
2018-01-16T01:36:47.402Z,0
2018-01-16T01:37:27.894Z,0
2018-01-16T01:38:08.414Z,0
2018-01-16T01:38:48.997Z,0
2018-01-16T01:39:29.533Z,0
2018-01-16T01:40:10.058Z,0
2018-01-16T01:40:50.574Z,0
2018-01-16T01:41:31.107Z,0
2018-01-16T01:42:11.654Z,0
2018-01-16T01:42:52.193Z,0
2018-01-16T01:43:32.742Z,0
2018-01-16T01:44:13.320Z,0
2018-01-16T01:44:53.852Z,0
2018-01-16T01:45:34.356Z,0
2018-01-16T01:46:14.878Z,0
2018-01-16T01:46:55.411Z,0
2018-01-16T01:47:35.994Z,0
2018-01-16T01:48:16.544Z,0
2018-01-16T01:48:57.075Z,0
2018-01-16T01:49:37.660Z,0
2018-01-16T01:50:18.153Z,0
2018-01-16T01:50:58.700Z,0
2018-01-16T01:51:39.256Z,0
2018-01-16T01:52:19.802Z,0
2018-01-16T01:53:00.314Z,0
2018-01-16T01:53:40.828Z,0
2018-01-16T01:54:21.331Z,0
2018-01-16T01:55:01.875Z,0
2018-01-16T01:55:42.367Z,0
2018-01-16T01:56:22.897Z,0
2018-01-16T01:57:03.461Z,0
2018-01-16T01:57:44.008Z,0
2018-01-16T01:58:24.545Z,0
2018-01-16T01:59:05.090Z,0
2018-01-16T01:59:45.662Z,0
2018-01-16T02:00:26.260Z,0
2018-01-16T02:01:06.747Z,0
2018-01-16T02:01:47.266Z,0
2018-01-16T02:02:27.993Z,0
2018-01-16T02:03:08.565Z,0
2018-01-16T02:03:49.239Z,0
2018-01-16T02:04:29.660Z,0
2018-01-16T02:05:10.176Z,0
2018-01-16T02:05:50.751Z,0
2018-01-16T02:06:31.237Z,0
2018-01-16T02:07:11.775Z,0
2018-01-16T02:07:52.295Z,0
2018-01-16T02:08:32.906Z,0
2018-01-16T02:09:13.410Z,0
2018-01-16T02:09:53.925Z,0
2018-01-16T02:10:34.537Z,0
2018-01-16T02:11:15.122Z,0
2018-01-16T02:11:55.659Z,0
2018-01-16T02:12:36.184Z,0
2018-01-16T02:13:16.740Z,0
2018-01-16T02:13:57.317Z,0
2018-01-16T02:14:37.850Z,0
2018-01-16T02:15:18.346Z,0
2018-01-16T02:15:58.853Z,0
2018-01-16T02:16:39.413Z,0
2018-01-16T02:17:19.927Z,0
2018-01-16T02:18:00.420Z,0
2018-01-16T02:18:40.983Z,0
2018-01-16T02:19:21.509Z,0
2018-01-16T02:20:02.057Z,0
2018-01-16T02:20:42.635Z,0
2018-01-16T02:21:23.149Z,0
2018-01-16T02:22:03.701Z,0
2018-01-16T02:22:44.252Z,0
2018-01-16T02:23:24.790Z,0
2018-01-16T02:24:06.232Z,0
2018-01-16T02:24:46.738Z,0
2018-01-16T02:25:27.275Z,0
2018-01-16T02:26:07.817Z,0
2018-01-16T02:26:48.368Z,0
2018-01-16T02:27:28.935Z,0
2018-01-16T02:28:09.460Z,0
2018-01-16T02:28:49.957Z,0
2018-01-16T02:29:30.459Z,0
2018-01-16T02:30:11.011Z,0
2018-01-16T02:30:51.574Z,0
2018-01-16T02:31:32.145Z,0
2018-01-16T02:32:12.667Z,0
2018-01-16T02:32:53.262Z,0
2018-01-16T02:33:33.759Z,0
2018-01-16T02:34:14.332Z,0
2018-01-16T02:34:54.914Z,0
2018-01-16T02:35:35.444Z,0
2018-01-16T02:36:15.993Z,0
2018-01-16T02:36:56.525Z,0
2018-01-16T02:37:37.054Z,0
2018-01-16T02:38:17.563Z,0
2018-01-16T02:38:58.119Z,0
2018-01-16T02:39:39.362Z,0
2018-01-16T02:40:19.204Z,0
2018-01-16T02:40:59.713Z,0
2018-01-16T02:41:40.318Z,0
2018-01-16T02:42:20.884Z,0
2018-01-16T02:43:01.366Z,0
2018-01-16T02:43:41.907Z,0
2018-01-16T02:44:22.463Z,0
2018-01-16T02:45:03.041Z,0
2018-01-16T02:45:43.566Z,0
2018-01-16T02:46:24.046Z,0
2018-01-16T02:47:04.606Z,0
2018-01-16T02:47:45.153Z,0
2018-01-16T02:48:25.674Z,0
2018-01-16T02:49:06.189Z,0
2018-01-16T02:49:46.765Z,0
2018-01-16T02:50:27.374Z,0
2018-01-16T02:51:07.846Z,0
2018-01-16T02:51:48.417Z,0
2018-01-16T02:52:28.962Z,0
2018-01-16T02:53:09.474Z,0
2018-01-16T02:53:50.015Z,0
2018-01-16T02:54:30.568Z,0
2018-01-16T02:55:11.103Z,0
2018-01-16T02:55:51.660Z,0
2018-01-16T02:56:32.184Z,0
2018-01-16T02:57:12.730Z,0
2018-01-16T02:57:53.261Z,0
2018-01-16T02:58:33.839Z,0
2018-01-16T02:59:14.374Z,0
2018-01-16T02:59:54.895Z,0
2018-01-16T03:00:35.394Z,0
2018-01-16T03:01:15.917Z,0
2018-01-16T03:01:56.492Z,0
2018-01-16T03:02:37.072Z,0
2018-01-16T03:03:17.558Z,0
2018-01-16T03:03:58.093Z,0
2018-01-16T03:04:38.653Z,0
2018-01-16T03:05:19.161Z,0
2018-01-16T03:05:59.688Z,0
2018-01-16T03:06:40.198Z,0
2018-01-16T03:07:20.693Z,0
2018-01-16T03:08:01.271Z,0
2018-01-16T03:08:41.826Z,0
2018-01-16T03:09:22.345Z,0
2018-01-16T03:10:02.891Z,0
2018-01-16T03:10:43.509Z,0
2018-01-16T03:11:24.070Z,0
2018-01-16T03:12:04.630Z,0
2018-01-16T03:12:45.185Z,0
2018-01-16T03:13:25.727Z,0
2018-01-16T03:14:06.281Z,0
2018-01-16T03:14:46.742Z,0
2018-01-16T03:15:27.335Z,0
2018-01-16T03:16:07.860Z,0
2018-01-16T03:16:48.377Z,0
2018-01-16T03:17:28.937Z,0
2018-01-16T03:18:09.403Z,0
2018-01-16T03:18:49.977Z,0
2018-01-16T03:19:30.484Z,0
2018-01-16T03:20:11.076Z,0
2018-01-16T03:20:51.618Z,0
2018-01-16T03:21:32.141Z,0
2018-01-16T03:22:12.670Z,0
2018-01-16T03:22:53.233Z,0
2018-01-16T03:23:33.798Z,0
2018-01-16T03:24:14.325Z,0
2018-01-16T03:24:54.908Z,0
2018-01-16T03:25:35.482Z,0
2018-01-16T03:26:15.991Z,0
2018-01-16T03:26:56.526Z,0
2018-01-16T03:27:36.983Z,0
2018-01-16T03:28:17.572Z,0
2018-01-16T03:28:58.095Z,0
2018-01-16T03:29:38.682Z,0
2018-01-16T03:30:19.237Z,0
2018-01-16T03:30:59.743Z,0
2018-01-16T03:31:40.355Z,0
2018-01-16T03:32:20.841Z,0
2018-01-16T03:33:01.364Z,0
2018-01-16T03:33:41.894Z,0
2018-01-16T03:34:22.434Z,0
2018-01-16T03:35:03.022Z,0
2018-01-16T03:35:43.600Z,0
2018-01-16T03:36:24.101Z,0
2018-01-16T03:37:04.690Z,0
2018-01-16T03:37:45.206Z,0
2018-01-16T03:38:25.703Z,0
2018-01-16T03:39:06.246Z,0
2018-01-16T03:39:46.773Z,0
2018-01-16T03:40:27.341Z,0
2018-01-16T03:41:07.908Z,0
2018-01-16T03:41:48.476Z,0
2018-01-16T03:42:29.080Z,0
2018-01-16T03:43:09.561Z,0
2018-01-16T03:43:50.135Z,0
2018-01-16T03:44:30.702Z,0
2018-01-16T03:45:11.268Z,0
2018-01-16T03:45:51.771Z,0
2018-01-16T03:46:32.232Z,0
2018-01-16T03:47:12.759Z,0
2018-01-16T03:47:53.271Z,0
2018-01-16T03:48:33.821Z,0
2018-01-16T03:49:14.447Z,0
2018-01-16T03:49:54.969Z,0
2018-01-16T03:50:35.530Z,0
2018-01-16T03:51:16.090Z,0
2018-01-16T03:51:56.590Z,0
2018-01-16T03:52:37.191Z,0
2018-01-16T03:53:17.718Z,0
2018-01-16T03:53:58.251Z,0
2018-01-16T03:54:38.801Z,0
2018-01-16T03:55:19.316Z,0
2018-01-16T03:55:59.894Z,0
2018-01-16T03:56:40.392Z,0
2018-01-16T03:57:20.913Z,0
2018-01-16T03:58:01.450Z,0
2018-01-16T03:58:41.978Z,0
2018-01-16T03:59:22.537Z,0
2018-01-16T04:00:03.064Z,0
2018-01-16T04:00:43.585Z,0
2018-01-16T04:01:24.109Z,0
2018-01-16T04:02:04.630Z,0
2018-01-16T04:02:45.163Z,0
2018-01-16T04:03:25.780Z,0
2018-01-16T04:04:06.276Z,0
2018-01-16T04:04:46.796Z,0
2018-01-16T04:05:27.393Z,0
2018-01-16T04:06:07.892Z,0
2018-01-16T04:06:48.415Z,0
2018-01-16T04:07:28.941Z,0
2018-01-16T04:08:09.464Z,0
2018-01-16T04:08:50.032Z,0
2018-01-16T04:09:30.575Z,0
2018-01-16T04:10:11.086Z,0
2018-01-16T04:10:51.609Z,0
2018-01-16T04:11:32.153Z,0
2018-01-16T04:12:12.715Z,0
2018-01-16T04:12:53.242Z,0
2018-01-16T04:13:33.763Z,0
2018-01-16T04:14:14.345Z,0
2018-01-16T04:14:54.817Z,0
2018-01-16T04:15:35.390Z,0
2018-01-16T04:16:15.925Z,0
2018-01-16T04:16:56.502Z,0
2018-01-16T04:17:36.987Z,0
2018-01-16T04:18:17.503Z,0
2018-01-16T04:18:58.044Z,0
2018-01-16T04:19:38.613Z,0
2018-01-16T04:20:19.086Z,0
2018-01-16T04:20:59.636Z,0
2018-01-16T04:21:40.175Z,0
2018-01-16T04:22:20.742Z,0
2018-01-16T04:23:01.187Z,0
2018-01-16T04:23:41.745Z,0
2018-01-16T04:24:22.296Z,0
2018-01-16T04:25:02.838Z,0
2018-01-16T04:25:43.404Z,0
2018-01-16T04:26:23.973Z,0
2018-01-16T04:27:04.476Z,0
2018-01-16T04:27:45.014Z,0
2018-01-16T04:28:25.515Z,0
2018-01-16T04:29:06.120Z,0
2018-01-16T04:29:46.647Z,0
2018-01-16T04:30:27.180Z,0
2018-01-16T04:31:07.761Z,0
2018-01-16T04:31:48.306Z,0
2018-01-16T04:34:16.886Z,0
2018-01-16T04:34:57.411Z,0
2018-01-16T04:35:38.214Z,0
2018-01-16T04:36:18.812Z,0
2018-01-16T04:36:59.353Z,0
2018-01-16T04:37:39.880Z,0
2018-01-16T04:38:20.401Z,0
2018-01-16T04:39:00.976Z,0
2018-01-16T04:39:41.464Z,0
2018-01-16T04:40:22.016Z,0
2018-01-16T04:41:02.578Z,0
2018-01-16T04:41:43.063Z,0
2018-01-16T04:42:23.634Z,0
2018-01-16T04:43:04.159Z,0
2018-01-16T04:43:44.722Z,0
2018-01-16T04:44:25.280Z,0
2018-01-16T04:45:05.776Z,0
2018-01-16T04:45:46.299Z,0
2018-01-16T04:46:26.928Z,0
2018-01-16T04:47:07.502Z,0
2018-01-16T04:47:48.089Z,0
2018-01-16T04:48:28.624Z,0
2018-01-16T04:49:09.191Z,0
2018-01-16T04:49:49.716Z,0
2018-01-16T04:50:30.251Z,0
2018-01-16T04:51:10.792Z,0
2018-01-16T04:51:51.372Z,0
2018-01-16T04:52:31.964Z,0
2018-01-16T04:53:12.473Z,0
2018-01-16T04:53:52.994Z,0
2018-01-16T04:54:33.524Z,0
2018-01-16T04:55:14.068Z,0
2018-01-16T04:55:54.625Z,0
2018-01-16T04:56:35.149Z,0
2018-01-16T04:57:15.681Z,0
2018-01-16T04:57:56.234Z,0
2018-01-16T04:58:36.842Z,0
2018-01-16T04:59:17.423Z,0
2018-01-16T04:59:57.928Z,0
2018-01-16T05:00:38.467Z,0
2018-01-16T05:01:19.001Z,0
2018-01-16T05:01:59.550Z,0
2018-01-16T05:02:40.066Z,0
2018-01-16T05:03:20.612Z,0
2018-01-16T05:04:01.157Z,0
2018-01-16T05:04:41.765Z,0
2018-01-16T05:05:22.265Z,0
2018-01-16T05:06:02.787Z,0
2018-01-16T05:06:43.377Z,0
2018-01-16T05:07:23.875Z,0
2018-01-16T05:08:04.434Z,0
2018-01-16T05:08:45.046Z,0
2018-01-16T05:09:25.514Z,0
2018-01-16T05:10:06.114Z,0
2018-01-16T05:10:46.672Z,0
2018-01-16T05:11:27.235Z,0
2018-01-16T05:12:07.704Z,0
2018-01-16T05:12:48.217Z,0
2018-01-16T05:13:28.787Z,0
2018-01-16T05:14:09.351Z,0
2018-01-16T05:14:49.883Z,0
2018-01-16T05:15:30.384Z,0
2018-01-16T05:16:10.899Z,0
2018-01-16T05:16:51.440Z,0
2018-01-16T05:17:31.931Z,0
2018-01-16T05:18:12.533Z,0
2018-01-16T05:18:53.039Z,0
2018-01-16T05:19:33.581Z,0
2018-01-16T05:20:14.125Z,0
2018-01-16T05:20:54.672Z,0
2018-01-16T05:21:35.258Z,0
2018-01-16T05:22:15.755Z,0
2018-01-16T05:22:56.295Z,0
2018-01-16T05:23:36.856Z,0
2018-01-16T05:24:17.363Z,0
2018-01-16T05:24:57.846Z,0
2018-01-16T05:25:38.377Z,0
2018-01-16T05:26:18.905Z,0
2018-01-16T05:26:59.430Z,0
2018-01-16T05:27:40.034Z,0
2018-01-16T05:28:20.485Z,0
2018-01-16T05:29:01.029Z,0
2018-01-16T05:29:41.519Z,0
2018-01-16T05:30:22.107Z,0
2018-01-16T05:31:02.566Z,0
2018-01-16T05:31:43.090Z,0
2018-01-16T05:32:23.612Z,0
2018-01-16T05:33:04.162Z,0
2018-01-16T05:33:44.661Z,0
2018-01-16T05:34:25.199Z,0
2018-01-16T05:35:05.713Z,0
2018-01-16T05:35:46.279Z,0
2018-01-16T05:36:26.891Z,0
2018-01-16T05:37:07.461Z,0
2018-01-16T05:37:48.020Z,0
2018-01-16T05:38:28.566Z,0
2018-01-16T05:39:09.132Z,0
2018-01-16T05:39:49.662Z,0
2018-01-16T05:40:30.222Z,0
2018-01-16T05:41:10.737Z,0
2018-01-16T05:41:51.274Z,0
2018-01-16T05:42:31.783Z,0
2018-01-16T05:43:12.312Z,0
2018-01-16T05:43:52.840Z,0
2018-01-16T05:44:33.293Z,0
2018-01-16T05:45:13.906Z,0
2018-01-16T05:45:54.395Z,0
2018-01-16T05:46:34.988Z,0
2018-01-16T05:47:15.514Z,0
2018-01-16T05:47:56.106Z,0
2018-01-16T05:48:36.583Z,0
2018-01-16T05:49:17.080Z,0
2018-01-16T05:49:57.631Z,0
2018-01-16T05:50:38.241Z,0
2018-01-16T05:51:18.825Z,0
2018-01-16T05:51:59.342Z,0
2018-01-16T05:52:39.895Z,0
2018-01-16T05:53:20.436Z,0
2018-01-16T05:54:00.996Z,0
2018-01-16T05:54:41.564Z,0
2018-01-16T05:55:22.184Z,0
2018-01-16T05:56:02.686Z,0
2018-01-16T05:56:43.223Z,0
2018-01-16T05:57:23.807Z,0
2018-01-16T05:58:04.349Z,0
2018-01-16T05:58:44.867Z,0
2018-01-16T06:01:03.558Z,0
2018-01-16T06:01:44.087Z,0
2018-01-16T06:02:24.666Z,0
2018-01-16T06:03:05.187Z,0
2018-01-16T06:03:45.764Z,0
2018-01-16T06:04:26.297Z,0
2018-01-16T06:05:06.891Z,0
2018-01-16T06:05:47.437Z,0
2018-01-16T06:06:27.953Z,0
2018-01-16T06:07:08.454Z,0
2018-01-16T06:07:49.032Z,0
2018-01-16T06:08:29.519Z,0
2018-01-16T06:09:10.145Z,0
2018-01-16T06:09:50.633Z,0
2018-01-16T06:10:31.196Z,0
2018-01-16T06:11:11.684Z,0
2018-01-16T06:11:52.250Z,0
2018-01-16T06:12:32.920Z,0
2018-01-16T06:13:13.465Z,0
2018-01-16T06:13:54.077Z,0
2018-01-16T06:14:34.677Z,0
2018-01-16T06:15:15.187Z,0
2018-01-16T06:15:55.734Z,0
2018-01-16T06:16:36.398Z,0
2018-01-16T06:17:16.846Z,0
2018-01-16T06:17:57.446Z,0
2018-01-16T06:18:38.822Z,0
2018-01-16T06:19:18.516Z,0
2018-01-16T06:19:59.083Z,0
2018-01-16T06:20:39.664Z,0
2018-01-16T06:21:20.244Z,0
2018-01-16T06:22:00.803Z,0
2018-01-16T06:22:41.305Z,0
2018-01-16T06:23:21.908Z,0
2018-01-16T06:24:02.555Z,0
2018-01-16T06:24:43.058Z,0
2018-01-16T06:25:23.595Z,0
2018-01-16T06:26:04.131Z,0
2018-01-16T06:26:44.717Z,0
2018-01-16T06:27:25.224Z,0
2018-01-16T06:28:05.736Z,0
2018-01-16T06:28:46.320Z,0
2018-01-16T06:29:26.861Z,0
2018-01-16T06:30:07.407Z,0
2018-01-16T06:30:47.883Z,0
2018-01-16T06:31:28.424Z,0
2018-01-16T06:32:08.952Z,0
2018-01-16T06:32:49.513Z,0
2018-01-16T06:33:30.063Z,0
2018-01-16T06:34:10.603Z,0
2018-01-16T06:34:51.174Z,0
2018-01-16T06:35:31.713Z,0
2018-01-16T06:36:12.304Z,0
2018-01-16T06:36:52.933Z,0
2018-01-16T06:37:33.342Z,0
2018-01-16T06:38:13.930Z,0
2018-01-16T06:38:54.461Z,0
2018-01-16T06:39:35.062Z,0
2018-01-16T06:40:15.579Z,0
2018-01-16T06:40:56.148Z,0
2018-01-16T06:41:36.736Z,0
2018-01-16T06:42:17.282Z,0
2018-01-16T06:42:57.773Z,0
2018-01-16T06:43:38.366Z,0
2018-01-16T06:44:19.076Z,0
2018-01-16T06:44:59.456Z,0
2018-01-16T06:45:39.956Z,0
2018-01-16T06:46:20.514Z,0
2018-01-16T06:47:01.616Z,0
2018-01-16T06:47:42.129Z,0
2018-01-16T06:48:22.723Z,0
2018-01-16T06:49:03.323Z,0
2018-01-16T06:49:43.922Z,0
2018-01-16T06:50:24.375Z,0
2018-01-16T06:51:04.910Z,0
2018-01-16T06:51:45.469Z,0
2018-01-16T06:52:25.984Z,0
2018-01-16T06:53:06.579Z,0
2018-01-16T06:53:47.119Z,0
2018-01-16T06:54:27.667Z,0
2018-01-16T06:55:08.233Z,0
2018-01-16T06:55:48.750Z,0
2018-01-16T06:56:29.297Z,0
2018-01-16T06:57:09.828Z,0
2018-01-16T06:57:50.373Z,0
2018-01-16T06:58:30.948Z,0
2018-01-16T06:59:11.437Z,0
2018-01-16T06:59:51.962Z,0
2018-01-16T07:00:32.513Z,0
2018-01-16T07:01:13.117Z,0
2018-01-16T07:01:53.768Z,0
2018-01-16T07:02:34.329Z,0
2018-01-16T07:03:14.928Z,0
2018-01-16T07:03:55.469Z,0
2018-01-16T07:04:36.034Z,0
2018-01-16T07:05:16.571Z,0
2018-01-16T07:05:57.202Z,0
2018-01-16T07:06:38.414Z,0
2018-01-16T07:07:19.056Z,0
2018-01-16T07:07:59.624Z,0
2018-01-16T07:08:40.121Z,0
2018-01-16T07:09:20.701Z,0
2018-01-16T07:10:01.298Z,0
2018-01-16T07:10:41.877Z,0
2018-01-16T07:11:22.371Z,0
2018-01-16T07:12:02.959Z,0
2018-01-16T07:12:43.474Z,0
2018-01-16T07:13:24.007Z,0
2018-01-16T07:14:04.575Z,0
2018-01-16T07:14:45.147Z,0
2018-01-16T07:15:25.701Z,0
2018-01-16T07:16:06.232Z,0
2018-01-16T07:16:46.745Z,0
2018-01-16T07:17:27.700Z,0
2018-01-16T07:18:08.242Z,0
2018-01-16T07:18:48.822Z,0
2018-01-16T07:19:29.370Z,0
2018-01-16T07:20:09.917Z,0
2018-01-16T07:20:50.431Z,0
2018-01-16T07:21:30.951Z,0
2018-01-16T07:22:11.519Z,0
2018-01-16T07:22:52.084Z,0
2018-01-16T07:23:32.592Z,0
2018-01-16T07:24:13.123Z,0
2018-01-16T07:24:53.671Z,0
2018-01-16T07:25:34.225Z,0
2018-01-16T07:26:14.764Z,0
2018-01-16T07:26:55.301Z,0
2018-01-16T07:27:35.844Z,0
2018-01-16T07:28:16.399Z,0
2018-01-16T07:28:56.970Z,0
2018-01-16T07:29:37.524Z,0
2018-01-16T07:30:18.020Z,0
2018-01-16T07:30:58.585Z,0
2018-01-16T07:31:39.116Z,0
2018-01-16T07:32:19.668Z,0
2018-01-16T07:33:00.144Z,0
2018-01-16T07:33:40.696Z,0
2018-01-16T07:34:21.211Z,0
2018-01-16T07:35:01.754Z,0
2018-01-16T07:35:42.295Z,0
2018-01-16T07:36:22.787Z,0
2018-01-16T07:37:03.299Z,0
2018-01-16T07:37:43.850Z,0
2018-01-16T07:38:24.334Z,0
2018-01-16T07:39:04.885Z,0
2018-01-16T07:39:45.390Z,0
2018-01-16T07:40:25.921Z,0
2018-01-16T07:41:06.456Z,0
2018-01-16T07:41:47.003Z,0
2018-01-16T07:42:27.572Z,5
2018-01-16T07:43:08.089Z,5
2018-01-16T07:43:48.608Z,5
2018-01-16T07:44:29.137Z,5
2018-01-16T07:45:09.679Z,5
2018-01-16T07:45:50.234Z,5
2018-01-16T07:46:31.235Z,5
2018-01-16T07:47:11.778Z,5
2018-01-16T07:47:52.339Z,5
2018-01-16T07:48:32.841Z,5
2018-01-16T07:49:13.866Z,5
2018-01-16T07:50:34.957Z,10
2018-01-16T07:51:15.458Z,10
2018-01-16T07:51:56.018Z,10
2018-01-16T07:52:36.642Z,10
2018-01-16T07:53:17.186Z,10
2018-01-16T07:53:57.793Z,10
2018-01-16T07:54:38.241Z,10
2018-01-16T07:55:18.771Z,10
2018-01-16T07:55:59.284Z,5
2018-01-16T07:56:39.841Z,5
2018-01-16T07:57:20.361Z,5
2018-01-16T07:58:00.905Z,5
2018-01-16T07:58:41.401Z,5
2018-01-16T07:59:21.943Z,5
2018-01-16T08:00:02.489Z,5
2018-01-16T08:02:20.929Z,5
2018-01-16T08:03:01.478Z,10
2018-01-16T08:03:42.051Z,10
2018-01-16T08:04:22.584Z,10
2018-01-16T08:05:03.124Z,10
2018-01-16T08:05:43.645Z,10
2018-01-16T08:06:24.203Z,10
2018-01-16T08:07:04.686Z,10
2018-01-16T08:07:45.210Z,10
2018-01-16T08:08:25.803Z,10
2018-01-16T08:09:06.331Z,15
2018-01-16T08:09:46.851Z,15
2018-01-16T08:10:27.415Z,15
2018-01-16T08:11:07.950Z,15
2018-01-16T08:11:48.464Z,15
2018-01-16T08:12:28.994Z,10
2018-01-16T08:13:09.555Z,5
2018-01-16T08:13:50.065Z,5
2018-01-16T08:14:30.672Z,5
2018-01-16T08:15:11.236Z,5
2018-01-16T08:15:51.734Z,10
2018-01-16T08:16:32.246Z,10
2018-01-16T08:17:12.781Z,10
2018-01-16T08:17:53.383Z,5
2018-01-16T08:18:33.963Z,10
2018-01-16T08:19:14.589Z,10
2018-01-16T08:19:55.129Z,15
2018-01-16T08:20:35.627Z,20
2018-01-16T08:21:16.155Z,20
2018-01-16T08:21:56.699Z,25
2018-01-16T08:22:37.284Z,25
2018-01-16T08:23:17.776Z,30
2018-01-16T08:23:58.333Z,35
2018-01-16T08:24:38.866Z,35
2018-01-16T08:25:19.438Z,35
2018-01-16T08:25:59.931Z,40
2018-01-16T08:26:40.513Z,40
2018-01-16T08:27:21.027Z,40
2018-01-16T08:28:01.579Z,35
2018-01-16T08:28:42.103Z,35
2018-01-16T08:29:22.691Z,35
2018-01-16T08:30:03.421Z,35
2018-01-16T08:30:43.978Z,35
2018-01-16T08:31:24.518Z,30
2018-01-16T08:32:05.093Z,30
2018-01-16T08:32:45.558Z,30
2018-01-16T08:33:27.651Z,30
2018-01-16T08:34:08.480Z,25
2018-01-16T08:34:49.016Z,25
2018-01-16T08:35:29.586Z,20
2018-01-16T08:36:10.158Z,15
2018-01-16T08:36:50.689Z,15
2018-01-16T08:37:31.356Z,15
2018-01-16T08:38:11.885Z,15
2018-01-16T08:38:52.432Z,15
2018-01-16T08:39:32.965Z,15
2018-01-16T08:40:13.512Z,20
2018-01-16T08:40:54.007Z,30
2018-01-16T08:41:34.562Z,35
2018-01-16T08:42:15.035Z,35
2018-01-16T08:42:55.616Z,40
2018-01-16T08:43:36.171Z,40
2018-01-16T08:44:16.675Z,40
2018-01-16T08:44:57.268Z,45
2018-01-16T08:45:37.837Z,45
2018-01-16T08:46:18.364Z,40
2018-01-16T08:46:58.910Z,30
2018-01-16T08:47:39.505Z,20
2018-01-16T08:48:20.051Z,15
2018-01-16T08:49:00.590Z,15
2018-01-16T08:49:41.152Z,15
2018-01-16T08:50:21.676Z,15
2018-01-16T08:51:02.336Z,15
2018-01-16T08:51:42.848Z,15
2018-01-16T08:52:23.485Z,20
2018-01-16T08:53:04.127Z,25
2018-01-16T08:53:44.713Z,25
2018-01-16T08:54:25.327Z,25
2018-01-16T08:55:05.869Z,30
2018-01-16T08:55:46.420Z,25
2018-01-16T08:56:27.150Z,30
2018-01-16T08:57:07.673Z,30
2018-01-16T08:57:48.171Z,35
2018-01-16T08:58:28.791Z,45
2018-01-16T08:59:10.175Z,50
2018-01-16T08:59:49.910Z,50
2018-01-16T09:00:30.458Z,55
2018-01-16T09:01:10.979Z,55
2018-01-16T09:01:51.552Z,60
2018-01-16T09:02:32.094Z,55
2018-01-16T09:03:12.725Z,55
2018-01-16T09:03:53.802Z,50
2018-01-16T09:04:34.340Z,50
2018-01-16T09:05:14.953Z,60
2018-01-16T09:05:55.466Z,65
2018-01-16T09:06:36.446Z,65
2018-01-16T09:07:17.326Z,65
2018-01-16T09:07:58.234Z,65
2018-01-16T09:08:38.820Z,60
2018-01-16T09:09:19.972Z,60
2018-01-16T09:10:00.977Z,60
2018-01-16T09:10:41.936Z,55
2018-01-16T09:11:22.492Z,55
2018-01-16T09:12:03.002Z,55
2018-01-16T09:12:43.774Z,55
2018-01-16T09:13:24.508Z,50
2018-01-16T09:14:05.469Z,50
2018-01-16T09:14:46.025Z,50
2018-01-16T09:15:26.624Z,40
2018-01-16T09:16:07.125Z,35
2018-01-16T09:16:47.722Z,30
2018-01-16T09:17:28.416Z,30
2018-01-16T09:18:09.208Z,25
2018-01-16T09:18:49.693Z,25
2018-01-16T09:19:30.248Z,20
2018-01-16T09:20:12.042Z,20
2018-01-16T09:20:52.438Z,25
2018-01-16T09:21:33.108Z,30
2018-01-16T09:22:13.636Z,30
2018-01-16T09:22:54.375Z,30
2018-01-16T09:23:34.928Z,30
2018-01-16T09:24:15.474Z,25
2018-01-16T09:24:56.078Z,20
2018-01-16T09:25:36.569Z,20
2018-01-16T09:26:17.163Z,20
2018-01-16T09:26:57.651Z,25
2018-01-16T09:27:38.192Z,35
2018-01-16T09:28:18.697Z,35
2018-01-16T09:28:59.424Z,40
2018-01-16T09:29:39.922Z,40
2018-01-16T09:30:20.685Z,35
2018-01-16T09:31:01.630Z,35
2018-01-16T09:31:42.098Z,30
2018-01-16T09:32:22.630Z,30
2018-01-16T09:33:03.251Z,35
2018-01-16T09:33:43.719Z,40
2018-01-16T09:34:24.287Z,35
2018-01-16T09:35:04.793Z,35
2018-01-16T09:35:45.334Z,40
2018-01-16T09:36:25.876Z,40
2018-01-16T09:37:06.373Z,35
2018-01-16T09:37:46.912Z,30
2018-01-16T09:38:27.474Z,30
2018-01-16T09:39:07.979Z,25
2018-01-16T09:39:48.489Z,25
2018-01-16T09:40:29.081Z,25
2018-01-16T09:41:09.626Z,25
2018-01-16T09:41:50.104Z,25
2018-01-16T09:42:30.710Z,25
2018-01-16T09:43:11.232Z,25
2018-01-16T09:43:51.775Z,25
2018-01-16T09:44:32.326Z,30
2018-01-16T09:45:12.858Z,35
2018-01-16T09:45:53.385Z,30
2018-01-16T09:46:33.920Z,35
2018-01-16T09:47:14.507Z,35
2018-01-16T09:47:55.092Z,30
2018-01-16T09:48:35.541Z,30
2018-01-16T09:49:16.181Z,35
2018-01-16T09:49:56.735Z,30
2018-01-16T09:50:37.255Z,30
2018-01-16T09:51:17.819Z,30
2018-01-16T09:51:58.340Z,35
2018-01-16T09:52:38.883Z,40
2018-01-16T09:53:19.449Z,45
2018-01-16T09:53:59.920Z,45
2018-01-16T09:54:40.430Z,50
2018-01-16T09:55:20.979Z,45
2018-01-16T09:56:01.542Z,50
2018-01-16T09:56:42.045Z,45
2018-01-16T09:57:22.609Z,45
2018-01-16T09:58:03.163Z,35
2018-01-16T09:58:43.702Z,35
2018-01-16T09:59:24.242Z,35
2018-01-16T10:00:04.747Z,40
2018-01-16T10:00:45.363Z,50